| time (UTC) | temp F | wind direction | speed MPH | gust MPH | rain 1hr in | rain 24hr in | rain mn in | humidity % | barometer mb |
| 20260510060017 | 38 | 315 | 2.0 | 5.0 | 0.00 | 0.00 | 0.00 | 75 | 1002.4 |
| 20260510055017 | 39 | 315 | 1.0 | 4.0 | 0.00 | 0.00 | 0.00 | 75 | 1002.2 |
| 20260510054017 | 39 | 315 | 2.0 | 5.0 | 0.00 | 0.00 | 0.00 | 75 | 1002.4 |
| 20260510053017 | 39 | 315 | 2.0 | 7.0 | 0.00 | 0.00 | 0.00 | 75 | 1002.3 |
| 20260510052037 | 39 | 315 | 2.0 | 5.0 | 0.00 | 0.00 | 0.00 | 74 | 1002.3 |
| 20260510051017 | 38 | 315 | 1.0 | 3.0 | 0.00 | 0.00 | 0.00 | 75 | 1002.2 |
| 20260510050017 | 38 | 270 | 2.0 | 4.0 | 0.00 | 0.00 | 0.00 | 76 | 1002.2 |
| 20260510045017 | 38 | 248 | 1.0 | 3.0 | 0.00 | 0.00 | 0.00 | 76 | 1002.2 |
| 20260510044017 | 37 | 270 | 1.0 | 2.0 | 0.00 | 0.00 | 0.00 | 76 | 1002.2 |
| 20260510043017 | 37 | 270 | 1.0 | 2.0 | 0.00 | 0.00 | 0.00 | 76 | 1002.0 |
| 20260510042017 | 37 | 0.0 | 2.0 | 0.00 | 0.00 | 0.00 | 75 | 1002.0 | |
| 20260510041017 | 37 | 270 | 1.0 | 2.0 | 0.00 | 0.00 | 0.00 | 75 | 1001.8 |
| 20260510040017 | 37 | 248 | 2.0 | 4.0 | 0.00 | 0.00 | 0.00 | 76 | 1001.8 |
| 20260510035017 | 37 | 248 | 1.0 | 2.0 | 0.00 | 0.00 | 0.00 | 76 | 1001.8 |
| 20260510034018 | 37 | 248 | 1.0 | 2.0 | 0.00 | 0.00 | 0.00 | 77 | 1001.7 |
| 20260510033017 | 38 | 0.0 | 0.0 | 0.00 | 0.00 | 0.00 | 76 | 1001.5 | |
| 20260510032037 | 38 | 0.0 | 0.0 | 0.00 | 0.00 | 0.00 | 74 | 1001.6 | |
| 20260510031017 | 38 | 0.0 | 0.0 | 0.00 | 0.00 | 0.00 | 73 | 1001.6 | |
| 20260510030019 | 39 | 0.0 | 1.0 | 0.00 | 0.00 | 0.00 | 73 | 1001.7 | |
| 20260510025517 | 39 | 248 | 1.0 | 3.0 | 0.00 | 0.00 | 0.00 | 73 | 1001.8 |
| 20260510024517 | 39 | 315 | 1.0 | 2.0 | 0.00 | 0.00 | 0.00 | 73 | 1001.8 |
| 20260510023517 | 39 | 315 | 2.0 | 3.0 | 0.00 | 0.00 | 0.00 | 72 | 1001.9 |
| 20260510022517 | 38 | 315 | 1.0 | 3.0 | 0.00 | 0.00 | 0.00 | 72 | 1001.8 |
| 20260510021537 | 38 | 0.0 | 1.0 | 0.00 | 0.00 | 0.00 | 73 | 1001.1 | |
| 20260510020517 | 38 | 0.0 | 1.0 | 0.00 | 0.00 | 0.00 | 72 | 1000.8 | |
| 20260510015535 | 38 | 0.0 | 0.0 | 0.00 | 0.00 | 0.00 | 71 | 1000.8 | |
| 20260510014517 | 39 | 0.0 | 1.0 | 0.00 | 0.00 | 0.00 | 71 | 1000.7 | |
| 20260510013517 | 39 | 293 | 1.0 | 2.0 | 0.00 | 0.00 | 0.00 | 70 | 1000.4 |
| 20260510012517 | 39 | 315 | 1.0 | 5.0 | 0.00 | 0.00 | 0.00 | 70 | 1000.4 |
| 20260510011517 | 40 | 315 | 1.0 | 4.0 | 0.00 | 0.00 | 0.00 | 69 | 1000.4 |
| 20260510010517 | 40 | 338 | 1.0 | 3.0 | 0.00 | 0.00 | 0.00 | 67 | 1000.3 |
| 20260510005517 | 41 | 315 | 2.0 | 5.0 | 0.00 | 0.00 | 0.00 | 64 | 1000.1 |
| 20260510004517 | 41 | 338 | 2.0 | 5.0 | 0.00 | 0.00 | 0.00 | 63 | 999.9 |
| 20260510003538 | 41 | 315 | 2.0 | 5.0 | 0.00 | 0.00 | 0.00 | 62 | 999.8 |
| 20260510002518 | 42 | 315 | 4.0 | 7.0 | 0.00 | 0.00 | 0.00 | 61 | 999.7 |
| 20260510001517 | 42 | 315 | 2.0 | 5.0 | 0.00 | 0.00 | 0.00 | 60 | 999.7 |
| 20260510000517 | 42 | 315 | 3.0 | 7.0 | 0.00 | 0.00 | 0.00 | 59 | 999.4 |
| 20260509235517 | 42 | 315 | 3.0 | 7.0 | 0.00 | 0.00 | 0.00 | 59 | 999.3 |
| 20260509234517 | 42 | 315 | 3.0 | 7.0 | 0.00 | 0.00 | 0.00 | 59 | 999.2 |
| 20260509233517 | 42 | 270 | 6.0 | 14.0 | 0.00 | 0.00 | 0.00 | 58 | 999.1 |
| 20260509232517 | 42 | 293 | 4.0 | 11.0 | 0.00 | 0.00 | 0.00 | 56 | 999.0 |
| 20260509231517 | 42 | 315 | 6.0 | 16.0 | 0.00 | 0.00 | 0.00 | 55 | 998.9 |
| 20260509230518 | 43 | 315 | 5.0 | 9.0 | 0.00 | 0.00 | 0.00 | 55 | 998.8 |
| 20260509225517 | 43 | 315 | 5.0 | 12.0 | 0.00 | 0.00 | 0.00 | 55 | 998.7 |
| 20260509224517 | 43 | 315 | 6.0 | 14.0 | 0.00 | 0.00 | 0.00 | 53 | 998.7 |
| 20260509223517 | 43 | 315 | 5.0 | 10.0 | 0.00 | 0.00 | 0.00 | 53 | 998.6 |
| 20260509222517 | 44 | 315 | 5.0 | 11.0 | 0.00 | 0.00 | 0.00 | 51 | 998.5 |
| 20260509221538 | 45 | 293 | 4.0 | 12.0 | 0.00 | 0.00 | 0.00 | 51 | 998.4 |
| 20260509220557 | 45 | 315 | 5.0 | 15.0 | 0.00 | 0.00 | 0.00 | 50 | 998.2 |
| 20260509215517 | 45 | 315 | 4.0 | 10.0 | 0.00 | 0.00 | 0.00 | 50 | 998.2 |
| 20260509214517 | 46 | 315 | 4.0 | 13.0 | 0.00 | 0.00 | 0.00 | 50 | 998.1 |
| 20260509213537 | 46 | 315 | 3.0 | 12.0 | 0.00 | 0.00 | 0.00 | 49 | 998.0 |
| 20260509212517 | 45 | 315 | 6.0 | 11.0 | 0.00 | 0.00 | 0.00 | 51 | 997.8 |
| 20260509211557 | 46 | 315 | 6.0 | 14.0 | 0.00 | 0.00 | 0.00 | 50 | 997.6 |
| 20260509210537 | 46 | 315 | 5.0 | 12.0 | 0.00 | 0.00 | 0.00 | 51 | 997.6 |
| 20260509205618 | 44 | 315 | 4.0 | 8.0 | 0.00 | 0.00 | 0.00 | 57 | 997.5 |
| 20260509204517 | 43 | 315 | 3.0 | 10.0 | 0.00 | 0.00 | 0.00 | 60 | 997.4 |
| 20260509203517 | 43 | 315 | 4.0 | 10.0 | 0.00 | 0.00 | 0.00 | 60 | 997.3 |
| 20260509202517 | 43 | 315 | 4.0 | 11.0 | 0.00 | 0.00 | 0.00 | 59 | 997.1 |
| 20260509201517 | 44 | 315 | 3.0 | 9.0 | 0.00 | 0.00 | 0.00 | 59 | 997.0 |
| 20260509200517 | 44 | 315 | 3.0 | 9.0 | 0.00 | 0.00 | 0.00 | 60 | 996.9 |
| 20260509195537 | 44 | 315 | 5.0 | 12.0 | 0.00 | 0.00 | 0.00 | 60 | 996.8 |
| 20260509194517 | 44 | 315 | 4.0 | 8.0 | 0.00 | 0.00 | 0.00 | 57 | 996.7 |
| 20260509193537 | 45 | 315 | 4.0 | 9.0 | 0.00 | 0.00 | 0.00 | 55 | 996.6 |
| 20260509192517 | 45 | 315 | 4.0 | 8.0 | 0.00 | 0.00 | 0.00 | 51 | 996.4 |
| 20260509191517 | 46 | 315 | 3.0 | 6.0 | 0.00 | 0.00 | 0.00 | 50 | 996.4 |
| 20260509190517 | 46 | 293 | 1.0 | 3.0 | 0.00 | 0.00 | 0.00 | 51 | 996.2 |
| 20260509185517 | 46 | 315 | 3.0 | 6.0 | 0.00 | 0.00 | 0.00 | 50 | 996.0 |
| 20260509184517 | 48 | 315 | 4.0 | 7.0 | 0.00 | 0.00 | 0.00 | 47 | 995.9 |
| 20260509183517 | 49 | 45 | 2.0 | 8.0 | 0.00 | 0.00 | 0.00 | 47 | 995.6 |
| 20260509182517 | 47 | 315 | 5.0 | 11.0 | 0.00 | 0.00 | 0.00 | 50 | 995.5 |
| 20260509181537 | 47 | 315 | 3.0 | 6.0 | 0.00 | 0.00 | 0.00 | 52 | 995.2 |
| 20260509180517 | 46 | 315 | 3.0 | 7.0 | 0.00 | 0.00 | 0.00 | 54 | 995.1 |
| 20260509175517 | 45 | 315 | 4.0 | 8.0 | 0.00 | 0.00 | 0.00 | 55 | 994.8 |
| 20260509174638 | 46 | 315 | 4.0 | 8.0 | 0.00 | 0.00 | 0.00 | 54 | 994.5 |
| 20260509173517 | 46 | 315 | 4.0 | 8.0 | 0.00 | 0.00 | 0.00 | 54 | 994.4 |
| 20260509172517 | 46 | 315 | 4.0 | 9.0 | 0.00 | 0.00 | 0.00 | 53 | 994.0 |
| 20260509171517 | 47 | 315 | 5.0 | 11.0 | 0.00 | 0.00 | 0.00 | 52 | 993.8 |
| 20260509170517 | 47 | 315 | 5.0 | 9.0 | 0.00 | 0.00 | 0.00 | 49 | 993.5 |
| 20260509165517 | 47 | 315 | 5.0 | 9.0 | 0.00 | 0.00 | 0.00 | 49 | 993.3 |
| 20260509164517 | 46 | 315 | 6.0 | 12.0 | 0.00 | 0.00 | 0.00 | 51 | 993.2 |
| 20260509163517 | 46 | 315 | 7.0 | 14.0 | 0.00 | 0.00 | 0.00 | 51 | 993.0 |
| 20260509162517 | 46 | 315 | 6.0 | 12.0 | 0.00 | 0.00 | 0.00 | 50 | 992.8 |
| 20260509161537 | 46 | 338 | 6.0 | 17.0 | 0.00 | 0.00 | 0.00 | 51 | 992.7 |
| 20260509160517 | 46 | 315 | 4.0 | 11.0 | 0.00 | 0.00 | 0.00 | 51 | 992.6 |
| 20260509155557 | 45 | 315 | 6.0 | 14.0 | 0.00 | 0.00 | 0.00 | 51 | 992.3 |
| 20260509154517 | 45 | 315 | 5.0 | 12.0 | 0.00 | 0.00 | 0.00 | 52 | 992.2 |
| 20260509153517 | 44 | 315 | 8.0 | 15.0 | 0.00 | 0.00 | 0.00 | 53 | 992.1 |
| 20260509152517 | 44 | 315 | 7.0 | 15.0 | 0.00 | 0.00 | 0.00 | 53 | 992.0 |
| 20260509151517 | 44 | 315 | 7.0 | 18.0 | 0.00 | 0.00 | 0.00 | 54 | 991.8 |
| 20260509150517 | 44 | 293 | 5.0 | 12.0 | 0.00 | 0.00 | 0.00 | 55 | 991.6 |
| 20260509145517 | 44 | 315 | 6.0 | 14.0 | 0.00 | 0.00 | 0.00 | 52 | 991.6 |
| 20260509144517 | 44 | 315 | 7.0 | 12.0 | 0.00 | 0.00 | 0.00 | 51 | 991.3 |
| 20260509143517 | 45 | 315 | 4.0 | 8.0 | 0.00 | 0.00 | 0.00 | 50 | 991.1 |
| 20260509142517 | 44 | 315 | 3.0 | 9.0 | 0.00 | 0.00 | 0.00 | 51 | 990.9 |
| 20260509141517 | 43 | 315 | 6.0 | 13.0 | 0.00 | 0.00 | 0.00 | 52 | 990.8 |
| 20260509140517 | 43 | 315 | 5.0 | 12.0 | 0.00 | 0.00 | 0.00 | 52 | 990.6 |
| 20260509135517 | 42 | 270 | 4.0 | 9.0 | 0.00 | 0.00 | 0.00 | 58 | 990.5 |
| 20260509134517 | 41 | 293 | 4.0 | 12.0 | 0.00 | 0.00 | 0.00 | 58 | 990.5 |
| 20260509133517 | 41 | 315 | 6.0 | 11.0 | 0.00 | 0.00 | 0.00 | 56 | 990.4 |
| 20260509132537 | 42 | 315 | 4.0 | 10.0 | 0.00 | 0.00 | 0.00 | 57 | 990.3 |
| 20260509131517 | 42 | 315 | 5.0 | 13.0 | 0.00 | 0.00 | 0.00 | 54 | 990.3 |
| 20260509130517 | 43 | 315 | 4.0 | 10.0 | 0.00 | 0.00 | 0.00 | 52 | 990.3 |
| 20260509125517 | 43 | 315 | 5.0 | 13.0 | 0.00 | 0.00 | 0.00 | 52 | 990.2 |
| 20260509124517 | 43 | 315 | 4.0 | 7.0 | 0.00 | 0.00 | 0.00 | 52 | 990.0 |
| 20260509123517 | 43 | 270 | 5.0 | 10.0 | 0.00 | 0.00 | 0.00 | 53 | 990.0 |
| 20260509122543 | 43 | 315 | 3.0 | 8.0 | 0.00 | 0.00 | 0.00 | 57 | 990.0 |
| 20260509121538 | 42 | 315 | 3.0 | 7.0 | 0.00 | 0.00 | 0.00 | 59 | 989.9 |
| 20260509120517 | 42 | 315 | 4.0 | 10.0 | 0.00 | 0.00 | 0.00 | 61 | 989.9 |
| 20260509115517 | 42 | 293 | 4.0 | 9.0 | 0.00 | 0.00 | 0.00 | 63 | 989.8 |
| 20260509114537 | 41 | 293 | 3.0 | 8.0 | 0.00 | 0.00 | 0.00 | 64 | 989.6 |
| 20260509113517 | 41 | 270 | 3.0 | 7.0 | 0.00 | 0.00 | 0.00 | 64 | 989.5 |
| 20260509112517 | 40 | 248 | 3.0 | 6.0 | 0.00 | 0.00 | 0.00 | 65 | 989.4 |
| 20260509111517 | 40 | 248 | 4.0 | 7.0 | 0.00 | 0.00 | 0.00 | 67 | 989.4 |
| 20260509110517 | 40 | 248 | 4.0 | 8.0 | 0.00 | 0.00 | 0.00 | 67 | 989.3 |
| 20260509105517 | 40 | 248 | 4.0 | 8.0 | 0.00 | 0.00 | 0.00 | 67 | 989.4 |
| 20260509104517 | 40 | 248 | 4.0 | 9.0 | 0.00 | 0.00 | 0.00 | 67 | 989.3 |
| 20260509103517 | 40 | 248 | 5.0 | 9.0 | 0.00 | 0.00 | 0.00 | 67 | 989.2 |
| 20260509102517 | 40 | 248 | 4.0 | 7.0 | 0.00 | 0.00 | 0.00 | 67 | 989.2 |
| 20260509101517 | 41 | 248 | 6.0 | 10.0 | 0.00 | 0.00 | 0.00 | 67 | 989.3 |
| 20260509100537 | 42 | 248 | 3.0 | 6.0 | 0.00 | 0.00 | 0.00 | 64 | 989.0 |
| 20260509095538 | 43 | 248 | 4.0 | 7.0 | 0.00 | 0.00 | 0.00 | 61 | 989.1 |
| 20260509094537 | 44 | 248 | 4.0 | 7.0 | 0.00 | 0.00 | 0.00 | 58 | 989.1 |
| 20260509093517 | 45 | 270 | 4.0 | 7.0 | 0.00 | 0.00 | 0.00 | 55 | 989.0 |
| 20260509092517 | 45 | 248 | 3.0 | 5.0 | 0.00 | 0.00 | 0.00 | 53 | 988.9 |
| 20260509091517 | 46 | 225 | 2.0 | 5.0 | 0.00 | 0.00 | 0.00 | 52 | 988.9 |
| 20260509091017 | 46 | 248 | 4.0 | 7.0 | 0.00 | 0.00 | 0.00 | 52 | 989.0 |
| 20260509090017 | 46 | 270 | 3.0 | 5.0 | 0.00 | 0.00 | 0.00 | 51 | 989.2 |
| 20260509085037 | 46 | 270 | 3.0 | 7.0 | 0.00 | 0.00 | 0.00 | 51 | 989.0 |
| 20260509084037 | 46 | 270 | 2.0 | 3.0 | 0.00 | 0.00 | 0.00 | 52 | 989.3 |
| 20260509083016 | 46 | 270 | 4.0 | 6.0 | 0.00 | 0.00 | 0.00 | 52 | 989.3 |
| 20260509082017 | 46 | 0.0 | 0.0 | 0.00 | 0.00 | 0.00 | 54 | 988.8 | |
| 20260509081037 | 46 | 0.0 | 1.0 | 0.00 | 0.00 | 0.00 | 52 | 988.8 | |
| 20260509080037 | 47 | 0.0 | 1.0 | 0.00 | 0.00 | 0.00 | 49 | 988.9 | |
| 20260509075016 | 47 | 0.0 | 1.0 | 0.00 | 0.00 | 0.00 | 50 | 989.0 | |
| 20260509074017 | 47 | 0.0 | 0.0 | 0.00 | 0.00 | 0.00 | 49 | 989.0 | |
| 20260509073037 | 48 | 0.0 | 1.0 | 0.00 | 0.00 | 0.00 | 48 | 989.2 | |
| 20260509072017 | 48 | 270 | 2.0 | 5.0 | 0.00 | 0.00 | 0.00 | 47 | 989.5 |
| 20260509071017 | 48 | 270 | 2.0 | 7.0 | 0.00 | 0.00 | 0.00 | 47 | 989.5 |
| 20260509070057 | 49 | 315 | 2.0 | 4.0 | 0.00 | 0.00 | 0.00 | 47 | 989.5 |
| 20260509065037 | 50 | 338 | 2.0 | 4.0 | 0.00 | 0.00 | 0.00 | 45 | 989.7 |
| 20260509064017 | 52 | 315 | 2.0 | 5.0 | 0.00 | 0.00 | 0.00 | 42 | 989.7 |
| 20260509063117 | 53 | 248 | 5.0 | 9.0 | 0.00 | 0.00 | 0.00 | 39 | 989.6 |
| 20260509062037 | 51 | 248 | 4.0 | 8.0 | 0.00 | 0.00 | 0.00 | 39 | 989.7 |
| 20260509061017 | 52 | 248 | 4.0 | 7.0 | 0.00 | 0.00 | 0.00 | 38 | 989.5 |